TimeEST,TemperatureF,Dew PointF,Humidity,Sea Level PressureIn,VisibilityMPH,Wind Direction,Wind SpeedMPH,Gust SpeedMPH,PrecipitationIn,Events,Conditions,WindDirDegrees,DateUTC
12:51 AM,37.0,27.0,67,30.19,10.0,North,3.5,-,N/A,,Clear,350,2012-11-21 05:51:00
1:51 AM,37.9,26.1,62,30.20,10.0,North,5.8,-,N/A,,Scattered Clouds,360,2012-11-21 06:51:00
2:51 AM,39.0,26.1,60,30.20,10.0,North,6.9,-,N/A,,Partly Cloudy,10,2012-11-21 07:51:00
3:51 AM,37.9,26.1,62,30.20,10.0,North,6.9,-,N/A,,Partly Cloudy,10,2012-11-21 08:51:00
4:51 AM,37.0,26.1,65,30.22,10.0,Calm,Calm,-,N/A,,Scattered Clouds,0,2012-11-21 09:51:00
5:51 AM,37.0,26.1,65,30.23,10.0,North,5.8,-,N/A,,Partly Cloudy,360,2012-11-21 10:51:00
6:51 AM,37.0,27.0,67,30.25,10.0,North,6.9,-,N/A,,Partly Cloudy,360,2012-11-21 11:51:00
7:51 AM,37.9,28.0,68,30.27,10.0,Variable,5.8,-,N/A,,Overcast,0,2012-11-21 12:51:00
8:51 AM,39.9,30.0,68,30.27,10.0,North,5.8,-,N/A,,Mostly Cloudy,10,2012-11-21 13:51:00
9:51 AM,43.0,32.0,65,30.28,10.0,NNW,6.9,-,N/A,,Mostly Cloudy,330,2012-11-21 14:51:00
10:51 AM,44.1,33.1,65,30.27,10.0,North,5.8,-,N/A,,Overcast,10,2012-11-21 15:51:00
11:51 AM,46.4,33.8,62,30.25,10.0,North,8.1,-,N/A,,Partly Cloudy,360,2012-11-21 16:51:00
12:51 PM,46.0,35.1,66,30.25,10.0,North,9.2,-,N/A,,Clear,360,2012-11-21 17:51:00
1:51 PM,48.0,35.1,61,30.25,10.0,NNE,4.6,-,N/A,,Clear,30,2012-11-21 18:51:00
2:51 PM,46.9,36.0,66,30.25,10.0,ESE,5.8,-,N/A,,Clear,110,2012-11-21 19:51:00
3:51 PM,46.9,36.0,66,30.25,10.0,ESE,5.8,-,N/A,,Mostly Cloudy,110,2012-11-21 20:51:00
4:51 PM,43.0,36.0,76,30.26,10.0,NE,4.6,-,N/A,,Scattered Clouds,40,2012-11-21 21:51:00
5:41 PM,42.8,35.6,76,30.27,10.0,North,5.8,-,N/A,,Mostly Cloudy,350,2012-11-21 22:41:00
5:51 PM,43.0,36.0,76,30.27,10.0,North,3.5,-,N/A,,Overcast,10,2012-11-21 22:51:00
6:51 PM,41.0,35.1,79,30.28,10.0,North,4.6,-,N/A,,Partly Cloudy,10,2012-11-21 23:51:00
7:51 PM,37.9,34.0,86,30.28,10.0,NNW,3.5,-,N/A,,Clear,340,2012-11-22 00:51:00
8:51 PM,35.1,32.0,89,30.29,9.0,WNW,4.6,-,N/A,,Clear,300,2012-11-22 01:51:00
9:51 PM,33.1,30.9,92,30.28,8.0,West,3.5,-,N/A,,Clear,280,2012-11-22 02:51:00
10:51 PM,30.9,28.9,92,30.27,7.0,WNW,3.5,-,N/A,,Clear,290,2012-11-22 03:51:00
11:51 PM,30.9,28.9,92,30.27,5.0,WNW,4.6,-,N/A,,Clear,290,2012-11-22 04:51:00